createdAt,value
2019-01-31T00:00:10.405Z,1.56
2019-01-31T00:05:10.380Z,1.63
2019-01-31T00:10:10.336Z,1.63
2019-01-31T00:15:10.422Z,1.56
2019-01-31T00:20:10.437Z,1.63
2019-01-31T00:25:10.387Z,1.69
2019-01-31T00:30:10.421Z,1.69
2019-01-31T00:35:10.388Z,1.69
2019-01-31T00:40:10.405Z,1.69
2019-01-31T00:45:10.406Z,1.75
2019-01-31T00:50:10.394Z,1.75
2019-01-31T00:55:10.364Z,1.69
2019-01-31T01:00:10.444Z,1.5
2019-01-31T01:05:10.399Z,1.31
2019-01-31T01:10:10.452Z,1.31
2019-01-31T01:15:10.453Z,1.25
2019-01-31T01:20:10.409Z,1.19
2019-01-31T01:25:10.425Z,1.13
2019-01-31T01:30:10.419Z,1.13
2019-01-31T01:35:10.391Z,1.13
2019-01-31T01:40:10.478Z,1.06
2019-01-31T01:45:10.419Z,1
2019-01-31T01:50:10.517Z,0.94
2019-01-31T01:55:10.448Z,0.88
2019-01-31T02:00:10.409Z,0.88
2019-01-31T02:05:10.416Z,0.94
2019-01-31T02:10:10.484Z,0.94
2019-01-31T02:15:10.453Z,0.94
2019-01-31T02:20:10.482Z,0.94
2019-01-31T02:25:10.507Z,0.94
2019-01-31T02:30:10.485Z,1
2019-01-31T02:35:10.417Z,1
2019-01-31T02:40:10.508Z,1.06
2019-01-31T02:45:10.462Z,1.13
2019-01-31T02:50:10.530Z,1.13
2019-01-31T02:55:10.461Z,1.19
2019-01-31T03:00:10.522Z,1.19
2019-01-31T03:05:10.428Z,1.25
2019-01-31T03:10:10.508Z,1.25
2019-01-31T03:15:10.608Z,1.25
2019-01-31T03:20:10.473Z,1.25
2019-01-31T03:25:10.519Z,1.25
2019-01-31T03:30:10.483Z,1.31
2019-01-31T03:35:10.465Z,1.25
2019-01-31T03:40:10.492Z,1.25
2019-01-31T03:45:10.500Z,1.25
2019-01-31T03:50:10.532Z,1.31
2019-01-31T03:55:10.489Z,1.31
2019-01-31T04:00:10.535Z,1.25
2019-01-31T04:05:21.231Z,1.19
2019-01-31T04:10:18.577Z,1.19
2019-01-31T04:15:10.555Z,1
2019-01-31T04:20:10.472Z,1
2019-01-31T04:25:10.557Z,1
2019-01-31T04:30:10.514Z,1
2019-01-31T04:35:10.591Z,1
2019-01-31T04:40:10.509Z,0.94
2019-01-31T04:45:10.587Z,0.88
2019-01-31T04:50:10.521Z,0.81
2019-01-31T04:55:10.575Z,0.75
2019-01-31T05:00:10.580Z,0.75
2019-01-31T05:05:10.617Z,0.63
2019-01-31T05:10:10.532Z,0.63
2019-01-31T05:15:10.530Z,0.63
2019-01-31T05:20:10.592Z,0.63
2019-01-31T05:25:10.534Z,0.56
2019-01-31T05:30:10.546Z,0.5
2019-01-31T05:35:10.507Z,0.38
2019-01-31T05:40:10.578Z,0.25
2019-01-31T05:45:10.674Z,0.13
2019-01-31T05:50:10.613Z,0.06
2019-01-31T05:55:10.688Z,-0.06
2019-01-31T06:00:10.598Z,-0.06
2019-01-31T06:05:10.579Z,-0.19
2019-01-31T06:10:10.598Z,-0.19
2019-01-31T06:15:11.591Z,-0.25
2019-01-31T06:20:10.742Z,-0.31
2019-01-31T06:25:10.639Z,-0.38
2019-01-31T06:30:10.535Z,-0.44
2019-01-31T06:35:10.614Z,-0.5
2019-01-31T06:40:10.533Z,-0.56
2019-01-31T06:45:10.641Z,-0.69
2019-01-31T06:50:10.616Z,-0.69
2019-01-31T06:55:10.582Z,-0.75
2019-01-31T07:00:10.636Z,-0.81
2019-01-31T07:05:10.583Z,-0.88
2019-01-31T07:10:10.601Z,-0.94
2019-01-31T07:15:10.589Z,-0.94
2019-01-31T07:20:10.637Z,-0.94
2019-01-31T07:25:10.562Z,-0.94
2019-01-31T07:30:10.604Z,-0.88
2019-01-31T07:35:10.594Z,-0.81
2019-01-31T07:40:10.600Z,-0.75
2019-01-31T07:45:10.696Z,-0.69
2019-01-31T07:50:10.608Z,-0.69
2019-01-31T07:55:10.672Z,-0.63
2019-01-31T08:00:10.639Z,-0.56
2019-01-31T08:05:10.583Z,-0.44
2019-01-31T08:10:10.658Z,-0.38
2019-01-31T08:15:10.640Z,-0.25
2019-01-31T08:20:10.582Z,-0.06
2019-01-31T08:25:10.652Z,0.69
2019-01-31T08:30:10.637Z,1.38
2019-01-31T08:35:10.589Z,2.13
2019-01-31T08:40:10.635Z,2.81
2019-01-31T08:45:10.597Z,3.44
2019-01-31T08:50:10.675Z,4.19
2019-01-31T08:55:10.606Z,4.56
2019-01-31T09:00:10.672Z,4.44
2019-01-31T09:05:10.738Z,4.38
2019-01-31T09:10:10.662Z,4.38
2019-01-31T09:15:10.702Z,4.56
2019-01-31T09:20:10.697Z,4.56
2019-01-31T09:25:10.667Z,3.38
2019-01-31T09:30:10.704Z,3.31
2019-01-31T09:35:10.615Z,3.81
2019-01-31T09:40:10.698Z,4.25
2019-01-31T09:45:10.622Z,4.88
2019-01-31T09:50:10.722Z,5.19
2019-01-31T09:55:10.797Z,5.25
2019-01-31T10:00:10.706Z,5.44
2019-01-31T10:05:10.645Z,4.94
2019-01-31T10:10:10.738Z,4.81
2019-01-31T10:15:10.797Z,4.75
2019-01-31T10:20:10.768Z,4.88
2019-01-31T10:25:10.794Z,5.13
2019-01-31T10:30:10.688Z,5.25
2019-01-31T10:35:10.735Z,5.31
2019-01-31T10:40:10.658Z,5.75
2019-01-31T10:45:10.730Z,5.75
2019-01-31T10:50:10.752Z,5.63
2019-01-31T10:55:10.832Z,5.75
2019-01-31T11:00:10.745Z,5.88
2019-01-31T11:05:10.762Z,5.94
2019-01-31T11:10:10.754Z,5.63
2019-01-31T11:15:10.713Z,5.63
2019-01-31T11:20:10.719Z,5.69
2019-01-31T11:25:10.677Z,5.88
2019-01-31T11:30:10.729Z,5.75
2019-01-31T11:35:10.724Z,5.81
2019-01-31T11:40:10.762Z,5.69
2019-01-31T11:45:10.777Z,5.44
2019-01-31T11:50:10.735Z,5.69
2019-01-31T11:55:10.726Z,5.5
2019-01-31T12:00:10.727Z,5.56
2019-01-31T12:05:10.732Z,5.31
2019-01-31T12:10:10.706Z,5.44
2019-01-31T12:15:10.793Z,5.38
2019-01-31T12:20:10.793Z,5.63
2019-01-31T12:25:10.749Z,5.81
2019-01-31T12:30:10.784Z,5.88
2019-01-31T12:35:10.773Z,5.75
2019-01-31T12:40:10.978Z,5.63
2019-01-31T12:45:10.899Z,5.56
2019-01-31T12:50:10.803Z,5.25
2019-01-31T12:55:10.724Z,4.88
2019-01-31T13:00:10.799Z,4.5
2019-01-31T13:05:10.773Z,4.06
2019-01-31T13:10:11.024Z,4.19
2019-01-31T13:15:11.203Z,4.19
2019-01-31T13:20:10.804Z,4.13
2019-01-31T13:25:11.011Z,4.19
2019-01-31T13:30:10.896Z,4
2019-01-31T13:35:10.982Z,3.88
2019-01-31T13:40:10.962Z,3.75
2019-01-31T13:45:11.037Z,3.63
2019-01-31T13:50:10.891Z,3.63
2019-01-31T13:55:10.936Z,3.63
2019-01-31T14:00:10.919Z,3.63
2019-01-31T14:05:11.108Z,3.56
2019-01-31T14:10:11.160Z,3.44
2019-01-31T14:15:11.202Z,3.31
2019-01-31T14:20:11.002Z,3.31
2019-01-31T14:25:11.627Z,3.13
2019-01-31T14:30:11.297Z,3.13
2019-01-31T14:35:11.442Z,3.19
2019-01-31T14:40:11.273Z,3.25
2019-01-31T14:45:11.369Z,3.25
2019-01-31T14:50:10.954Z,3.25
2019-01-31T14:55:11.059Z,3.25
2019-01-31T15:00:11.412Z,3.25
2019-01-31T15:05:11.643Z,3.06
2019-01-31T15:10:11.555Z,3.06
2019-01-31T15:15:11.414Z,3.06
2019-01-31T15:20:11.481Z,3
2019-01-31T15:25:11.870Z,2.94
2019-01-31T15:30:16.470Z,2.88
2019-01-31T15:35:11.459Z,2.88
2019-01-31T15:40:11.782Z,2.88
2019-01-31T15:45:11.579Z,2.69
2019-01-31T15:50:11.546Z,2.63
2019-01-31T15:55:11.835Z,2.56
2019-01-31T16:00:11.574Z,2.44
2019-01-31T16:05:18.925Z,2.25
2019-01-31T16:10:12.100Z,2.13
2019-01-31T16:15:12.059Z,2
2019-01-31T16:20:11.294Z,1.94
2019-01-31T16:25:11.657Z,1.69
2019-01-31T16:30:12.017Z,1.63
2019-01-31T16:35:11.608Z,1.56
2019-01-31T16:40:12.060Z,1.5
2019-01-31T16:45:12.012Z,1.38
2019-01-31T16:50:11.231Z,1.31
2019-01-31T16:55:11.569Z,1.19
2019-01-31T17:00:12.102Z,1.13
2019-01-31T17:05:11.664Z,1
2019-01-31T17:10:11.714Z,1
2019-01-31T17:15:17.946Z,0.88
2019-01-31T17:20:11.670Z,0.81
2019-01-31T17:25:11.703Z,0.75
2019-01-31T17:30:12.985Z,0.69
2019-01-31T17:35:11.724Z,0.69
2019-01-31T17:40:12.123Z,0.69
2019-01-31T17:45:10.915Z,0.69
2019-01-31T17:50:10.912Z,0.63
2019-01-31T17:55:10.875Z,0.56
2019-01-31T18:00:10.942Z,0.44
2019-01-31T18:05:10.930Z,0.38
2019-01-31T18:10:10.867Z,0.31
2019-01-31T18:15:10.924Z,0.25
2019-01-31T18:20:10.968Z,0.19
2019-01-31T18:25:10.926Z,0.19
2019-01-31T18:30:10.971Z,0.25
2019-01-31T18:35:10.883Z,0.19
2019-01-31T18:40:10.942Z,0.13
2019-01-31T18:45:10.888Z,-0.06
2019-01-31T18:50:10.900Z,-0.13
2019-01-31T18:55:10.992Z,-0.19
2019-01-31T19:00:10.939Z,-0.31
2019-01-31T19:05:10.936Z,-0.38
2019-01-31T19:10:10.981Z,-0.44
2019-01-31T19:15:10.949Z,-0.38
2019-01-31T19:20:10.955Z,-0.38
2019-01-31T19:25:10.998Z,-0.38
2019-01-31T19:30:10.947Z,-0.44
2019-01-31T19:35:10.961Z,-0.56
2019-01-31T19:40:10.971Z,-0.63
2019-01-31T19:45:11.075Z,-0.75
2019-01-31T19:50:11.007Z,-0.75
2019-01-31T19:55:10.928Z,-0.81
2019-01-31T20:00:10.925Z,-0.81
2019-01-31T20:05:10.982Z,-0.81
2019-01-31T20:10:11.016Z,-0.81
2019-01-31T20:15:10.969Z,-0.81
2019-01-31T20:20:10.992Z,-0.81
2019-01-31T20:25:11.027Z,-0.81
2019-01-31T20:30:10.989Z,-0.88
2019-01-31T20:35:11.116Z,-0.94
2019-01-31T20:40:10.987Z,-0.94
2019-01-31T20:45:10.987Z,-1.06
2019-01-31T20:50:11.041Z,-1.13
2019-01-31T20:55:10.997Z,-1.13
2019-01-31T21:00:11.024Z,-1.13
2019-01-31T21:05:11.012Z,-1.13
2019-01-31T21:10:11.045Z,-1.19
2019-01-31T21:15:12.895Z,-1.19
2019-01-31T21:20:11.011Z,-1.19
2019-01-31T21:25:11.138Z,-1.13
2019-01-31T21:30:11.023Z,-1.13
2019-01-31T21:35:11.038Z,-1.13
2019-01-31T21:40:11.063Z,-1.19
2019-01-31T21:45:11.068Z,-1.19
2019-01-31T21:50:10.984Z,-1.25
2019-01-31T21:55:11.066Z,-1.38
2019-01-31T22:00:11.074Z,-1.56
2019-01-31T22:05:10.985Z,-1.75
2019-01-31T22:10:11.075Z,-1.81
2019-01-31T22:15:11.041Z,-1.88
2019-01-31T22:20:11.031Z,-1.94
2019-01-31T22:25:11.052Z,-2
2019-01-31T22:30:11.030Z,-2.06
2019-01-31T22:35:11.037Z,-2.06
2019-01-31T22:40:11.059Z,-2.13
2019-01-31T22:45:11.081Z,-2.13
2019-01-31T22:50:11.038Z,-2.19
2019-01-31T22:55:11.012Z,-2.25
2019-01-31T23:00:11.109Z,-2.31
2019-01-31T23:05:11.054Z,-2.38
2019-01-31T23:10:11.107Z,-2.38
2019-01-31T23:15:11.026Z,-2.31
2019-01-31T23:20:11.097Z,-2.25
2019-01-31T23:25:11.030Z,-2.31
2019-01-31T23:30:11.106Z,-2.31
2019-01-31T23:35:11.103Z,-2.31
2019-01-31T23:40:11.074Z,-2.38
2019-01-31T23:45:11.078Z,-2.44
2019-01-31T23:50:11.097Z,-2.5
2019-01-31T23:55:11.073Z,-2.5
